createdAt,value
2023-02-22T00:01:07.763Z,19.58
2023-02-22T00:03:35.007Z,18.27
2023-02-22T00:06:04.987Z,18.55
2023-02-22T00:08:34.260Z,18.60
2023-02-22T00:11:03.512Z,19.95
2023-02-22T00:13:30.929Z,19.17
2023-02-22T00:15:58.858Z,17.90
2023-02-22T00:18:30.039Z,18.20
2023-02-22T00:21:00.576Z,18.40
2023-02-22T00:23:29.923Z,19.88
2023-02-22T00:25:58.576Z,18.02
2023-02-22T00:28:25.420Z,18.67
2023-02-22T00:30:52.718Z,20.15
2023-02-22T00:33:21.033Z,19.85
2023-02-22T00:35:47.753Z,18.08
2023-02-22T00:38:17.303Z,18.35
2023-02-22T00:40:45.680Z,17.15
2023-02-22T00:43:12.814Z,18.80
2023-02-22T00:45:40.636Z,18.95
2023-02-22T00:48:09.557Z,17.83
2023-02-22T00:50:36.688Z,18.42
2023-02-22T00:53:05.399Z,20.10
2023-02-22T00:55:35.673Z,20.50
2023-02-22T00:58:04.004Z,20.30
2023-02-22T01:00:35.350Z,20.45
2023-02-22T01:03:02.194Z,19.73
2023-02-22T01:05:30.795Z,18.17
2023-02-22T01:08:00.150Z,19.67
2023-02-22T01:10:28.580Z,19.83
2023-02-22T01:12:56.631Z,19.85
2023-02-22T01:15:27.184Z,19.77
2023-02-22T01:17:54.197Z,19.73
2023-02-22T01:20:22.774Z,21.77
2023-02-22T01:22:51.677Z,21.38
2023-02-22T01:25:24.645Z,19.52
2023-02-22T01:27:52.953Z,21.60
2023-02-22T01:30:26.565Z,21.75
2023-02-22T01:35:24.025Z,21.52
2023-02-22T01:37:50.870Z,20.23
2023-02-22T01:40:24.948Z,21.35
2023-02-22T01:42:55.293Z,20.23
2023-02-22T01:45:31.060Z,20.20
2023-02-22T01:48:05.038Z,19.23
2023-02-22T01:50:34.922Z,19.13
2023-02-22T01:53:02.593Z,19.33
2023-02-22T01:55:29.457Z,18.73
2023-02-22T01:57:57.778Z,19.77
2023-02-22T02:00:27.595Z,20.23
2023-02-22T02:03:02.687Z,20.35
2023-02-22T02:05:31.762Z,19.85
2023-02-22T02:08:03.569Z,19.33
2023-02-22T02:10:32.282Z,19.25
2023-02-22T02:12:59.455Z,21.00
2023-02-22T02:15:30.815Z,21.23
2023-02-22T02:18:10.598Z,20.30
2023-02-22T02:20:47.606Z,20.02
2023-02-22T02:23:48.000Z,21.10
2023-02-22T02:26:46.019Z,21.15
2023-02-22T02:29:30.925Z,19.50
2023-02-22T02:32:29.932Z,20.10
2023-02-22T02:35:11.418Z,21.05
2023-02-22T02:38:02.329Z,20.08
2023-02-22T02:40:50.872Z,20.00
2023-02-22T02:43:44.992Z,20.33
2023-02-22T02:46:24.873Z,16.25
2023-02-22T02:48:56.929Z,17.33
2023-02-22T02:51:29.271Z,17.40
2023-02-22T02:53:57.454Z,19.88
2023-02-22T02:56:24.990Z,17.50
2023-02-22T02:58:53.941Z,18.60
2023-02-22T03:01:44.900Z,17.52
2023-02-22T03:04:38.337Z,16.77
2023-02-22T03:07:29.568Z,19.38
2023-02-22T03:10:18.084Z,15.73
2023-02-22T03:12:58.605Z,16.67
2023-02-22T03:16:03.783Z,16.63
2023-02-22T03:18:46.066Z,19.02
2023-02-22T03:21:36.168Z,18.08
2023-02-22T03:24:21.088Z,15.75
2023-02-22T03:27:26.128Z,16.05
2023-02-22T03:30:00.400Z,17.90
2023-02-22T03:32:36.588Z,16.13
2023-02-22T03:35:09.553Z,16.92
2023-02-22T03:37:42.418Z,17.85
2023-02-22T03:40:15.008Z,17.83
2023-02-22T03:42:54.963Z,17.83
2023-02-22T03:45:28.873Z,16.98
2023-02-22T03:48:10.288Z,17.63
2023-02-22T03:50:38.633Z,18.23
2023-02-22T03:53:09.597Z,16.35
2023-02-22T03:55:39.642Z,15.82
2023-02-22T03:58:11.897Z,16.23
2023-02-22T04:00:39.620Z,16.17
2023-02-22T04:03:06.384Z,15.27
2023-02-22T04:05:33.107Z,15.13
2023-02-22T04:07:59.737Z,15.32
2023-02-22T04:10:27.335Z,15.52
2023-02-22T04:12:54.069Z,16.83
2023-02-22T04:15:24.312Z,16.65
2023-02-22T04:17:55.292Z,15.23
2023-02-22T04:20:25.498Z,16.20
2023-02-22T04:22:56.482Z,15.95
2023-02-22T04:25:24.330Z,16.58
2023-02-22T04:27:52.700Z,17.08
2023-02-22T04:30:25.678Z,16.35
2023-02-22T04:32:52.883Z,16.17
2023-02-22T04:35:22.325Z,14.38
2023-02-22T04:37:49.173Z,14.85
2023-02-22T04:40:17.378Z,16.20
2023-02-22T04:42:44.168Z,15.43
2023-02-22T04:45:11.753Z,16.30
2023-02-22T04:47:39.784Z,16.08
2023-02-22T04:50:09.550Z,14.38
2023-02-22T04:52:36.399Z,14.70
2023-02-22T04:55:04.776Z,14.70
2023-02-22T04:57:32.691Z,15.02
2023-02-22T04:59:59.548Z,16.15
2023-02-22T05:02:26.341Z,16.17
2023-02-22T05:04:53.288Z,17.73
2023-02-22T05:07:20.025Z,16.38
2023-02-22T05:09:46.610Z,15.50
2023-02-22T05:12:13.340Z,17.00
2023-02-22T05:14:40.228Z,15.75
2023-02-22T05:17:07.106Z,16.23
2023-02-22T05:19:33.765Z,17.27
2023-02-22T05:22:00.490Z,16.42
2023-02-22T05:24:27.057Z,16.15
2023-02-22T05:26:53.784Z,15.85
2023-02-22T05:29:21.158Z,16.13
2023-02-22T05:31:48.192Z,17.08
2023-02-22T05:34:15.648Z,16.95
2023-02-22T05:36:42.305Z,16.33
2023-02-22T05:39:09.202Z,16.50
2023-02-22T05:41:35.833Z,16.75
2023-02-22T05:44:03.152Z,17.23
2023-02-22T05:46:30.079Z,17.75
2023-02-22T05:48:56.702Z,18.00
2023-02-22T05:51:23.842Z,17.52
2023-02-22T05:53:52.129Z,17.30
2023-02-22T05:56:23.645Z,16.52
2023-02-22T05:58:50.469Z,17.20
2023-02-22T06:01:17.967Z,18.38
2023-02-22T06:03:49.657Z,16.83
2023-02-22T06:06:17.168Z,18.00
2023-02-22T06:08:44.081Z,16.17
2023-02-22T06:11:11.710Z,16.60
2023-02-22T06:13:39.411Z,18.55
2023-02-22T06:16:06.768Z,17.83
2023-02-22T06:18:33.375Z,17.70
2023-02-22T06:21:00.817Z,19.63
2023-02-22T06:23:27.564Z,17.17
2023-02-22T06:25:54.527Z,14.05
2023-02-22T06:28:21.185Z,16.42
2023-02-22T06:30:49.653Z,16.95
2023-02-22T06:33:16.212Z,16.05
2023-02-22T06:35:42.882Z,17.08
2023-02-22T06:38:09.818Z,15.57
2023-02-22T06:40:37.100Z,16.85
2023-02-22T06:43:03.803Z,17.17
2023-02-22T06:45:30.891Z,16.92
2023-02-22T06:47:57.465Z,17.17
2023-02-22T06:50:30.549Z,17.10
2023-02-22T06:52:58.366Z,18.25
2023-02-22T06:55:28.544Z,17.73
2023-02-22T06:57:55.510Z,17.42
2023-02-22T07:00:25.148Z,17.23
2023-02-22T07:02:52.864Z,17.42
2023-02-22T07:05:21.495Z,16.95
2023-02-22T07:07:49.958Z,16.70
2023-02-22T07:10:20.970Z,17.10
2023-02-22T07:12:49.049Z,17.65
2023-02-22T07:15:18.219Z,17.77
2023-02-22T07:17:45.200Z,16.65
2023-02-22T07:20:11.981Z,18.27
2023-02-22T07:22:39.880Z,18.10
2023-02-22T07:25:10.047Z,16.92
2023-02-22T07:27:41.157Z,16.73
2023-02-22T07:30:32.648Z,17.58
2023-02-22T07:33:02.224Z,15.35
2023-02-22T07:35:32.043Z,17.33
2023-02-22T07:37:59.441Z,17.80
2023-02-22T07:40:27.267Z,16.35
2023-02-22T07:43:03.256Z,16.55
2023-02-22T07:45:33.899Z,15.93
2023-02-22T07:48:02.441Z,16.33
2023-02-22T07:50:31.407Z,17.73
2023-02-22T07:52:59.975Z,17.27
2023-02-22T07:55:29.198Z,17.70
2023-02-22T07:58:00.798Z,16.95
2023-02-22T08:00:33.840Z,16.83
2023-02-22T08:03:02.572Z,16.20
2023-02-22T08:05:31.343Z,16.80
2023-02-22T08:07:58.323Z,16.25
2023-02-22T08:10:26.238Z,15.23
2023-02-22T08:12:54.050Z,17.55
2023-02-22T08:15:31.684Z,15.38
2023-02-22T08:18:03.542Z,16.25
2023-02-22T08:20:31.058Z,17.38
2023-02-22T08:22:58.411Z,16.50
2023-02-22T08:25:27.253Z,17.25
2023-02-22T08:27:58.884Z,18.17
2023-02-22T08:30:26.292Z,17.55
2023-02-22T08:32:54.187Z,18.02
2023-02-22T08:35:22.238Z,18.23
2023-02-22T08:37:51.862Z,18.65
2023-02-22T08:40:22.337Z,17.15
2023-02-22T08:42:49.675Z,16.98
2023-02-22T08:45:17.663Z,17.33
2023-02-22T08:47:46.417Z,21.33
2023-02-22T08:50:26.248Z,19.05
2023-02-22T08:52:55.036Z,17.52
2023-02-22T08:55:23.717Z,19.65
2023-02-22T08:57:50.726Z,19.70
2023-02-22T09:00:24.755Z,19.58
2023-02-22T09:02:54.767Z,20.38
2023-02-22T09:05:22.149Z,17.92
2023-02-22T09:07:48.941Z,19.13
2023-02-22T09:10:20.429Z,18.60
2023-02-22T09:12:47.249Z,18.52
2023-02-22T09:15:15.125Z,16.98
2023-02-22T09:17:41.741Z,19.17
2023-02-22T09:20:12.412Z,17.30
2023-02-22T09:22:39.272Z,17.25
2023-02-22T09:25:16.301Z,18.55
2023-02-22T09:27:44.037Z,17.88
2023-02-22T09:30:34.303Z,15.25
2023-02-22T09:33:10.193Z,15.23
2023-02-22T09:35:42.583Z,15.35
2023-02-22T09:38:10.731Z,16.67
2023-02-22T09:40:45.239Z,15.32
2023-02-22T09:43:24.937Z,16.05
2023-02-22T09:46:13.754Z,17.67
2023-02-22T09:49:02.011Z,14.57
2023-02-22T09:51:37.498Z,14.68
2023-02-22T09:54:14.536Z,14.95
2023-02-22T09:56:44.019Z,15.00
2023-02-22T09:59:18.774Z,14.88
2023-02-22T10:01:50.057Z,14.82
2023-02-22T10:04:23.154Z,14.10
2023-02-22T10:07:06.018Z,14.52
2023-02-22T10:09:41.305Z,14.15
2023-02-22T10:12:34.102Z,14.68
2023-02-22T10:15:22.638Z,14.45
2023-02-22T10:17:55.764Z,14.68
2023-02-22T10:20:48.889Z,13.73
2023-02-22T10:23:43.561Z,13.98
2023-02-22T10:26:22.165Z,14.02
2023-02-22T10:29:14.914Z,13.50
2023-02-22T10:31:47.517Z,13.15
2023-02-22T10:34:19.896Z,12.77
2023-02-22T10:36:49.512Z,12.73
2023-02-22T10:39:38.811Z,12.18
2023-02-22T10:42:08.092Z,12.32
2023-02-22T10:44:37.161Z,12.27
2023-02-22T10:47:08.778Z,12.32
2023-02-22T10:49:40.837Z,12.63
2023-02-22T10:52:31.904Z,11.82
2023-02-22T10:55:14.011Z,11.75
2023-02-22T10:57:43.978Z,10.77
2023-02-22T11:00:26.393Z,11.10
2023-02-22T11:02:58.707Z,11.18
2023-02-22T11:05:37.962Z,10.63
2023-02-22T11:08:23.894Z,10.80
2023-02-22T11:10:57.180Z,10.65
2023-02-22T11:13:32.433Z,10.68
2023-02-22T11:16:19.618Z,11.00
2023-02-22T11:18:47.993Z,10.68
2023-02-22T11:21:22.794Z,11.10
2023-02-22T11:23:50.446Z,11.15
2023-02-22T11:26:20.658Z,11.02
2023-02-22T11:28:56.201Z,11.15
2023-02-22T11:31:27.543Z,12.15
2023-02-22T11:33:58.529Z,12.80
2023-02-22T11:36:37.957Z,11.52
2023-02-22T11:39:20.312Z,12.63
2023-02-22T11:41:50.804Z,12.27
2023-02-22T11:44:29.918Z,13.02
2023-02-22T11:47:01.436Z,12.45
2023-02-22T11:49:38.873Z,12.50
2023-02-22T11:52:18.948Z,12.77
2023-02-22T11:54:57.658Z,12.70
2023-02-22T11:58:08.240Z,12.60
2023-02-22T12:01:01.916Z,12.30
2023-02-22T12:03:29.012Z,11.23
2023-02-22T12:06:02.020Z,12.05
2023-02-22T12:08:37.738Z,11.85
2023-02-22T12:11:12.817Z,12.38
2023-02-22T12:13:51.067Z,12.82
2023-02-22T12:16:39.530Z,12.10
2023-02-22T12:19:33.048Z,12.13
2023-02-22T12:22:10.284Z,12.30
2023-02-22T12:24:42.727Z,12.70
2023-02-22T12:27:15.773Z,12.95
2023-02-22T12:29:58.712Z,12.45
2023-02-22T12:32:48.556Z,11.93
2023-02-22T12:35:21.806Z,12.52
2023-02-22T12:38:10.470Z,12.73
2023-02-22T12:41:04.034Z,12.82
2023-02-22T12:44:14.750Z,13.15
2023-02-22T12:46:49.852Z,12.80
2023-02-22T12:49:40.618Z,12.38
2023-02-22T12:52:21.245Z,13.48
2023-02-22T12:54:52.699Z,12.52
2023-02-22T12:57:50.366Z,12.98
2023-02-22T13:00:32.198Z,12.82
2023-02-22T13:03:27.390Z,13.70
2023-02-22T13:06:21.365Z,12.80
2023-02-22T13:09:01.875Z,13.40
2023-02-22T13:11:34.795Z,13.90
2023-02-22T13:14:30.436Z,14.02
2023-02-22T13:17:14.704Z,13.98
2023-02-22T13:19:54.652Z,13.80
2023-02-22T13:22:48.216Z,13.70
2023-02-22T13:25:17.937Z,14.63
2023-02-22T13:28:23.138Z,13.85
2023-02-22T13:31:07.904Z,14.25
2023-02-22T13:34:02.884Z,13.52
2023-02-22T13:37:08.995Z,14.98
2023-02-22T13:39:55.573Z,13.88
2023-02-22T13:42:50.196Z,14.38
2023-02-22T13:45:41.797Z,15.70
2023-02-22T13:48:16.036Z,14.85
2023-02-22T13:51:12.118Z,14.85
2023-02-22T13:53:47.846Z,14.63
2023-02-22T13:56:16.179Z,15.38
2023-02-22T13:58:49.495Z,15.43
2023-02-22T14:01:45.942Z,15.82
2023-02-22T14:04:33.039Z,15.75
2023-02-22T14:07:03.321Z,14.65
2023-02-22T14:09:56.639Z,15.90
2023-02-22T14:12:29.250Z,15.30
2023-02-22T14:15:29.135Z,14.65
2023-02-22T14:17:57.494Z,16.13
2023-02-22T14:20:32.594Z,15.75
2023-02-22T14:23:30.621Z,16.08
2023-02-22T14:26:29.501Z,15.68
2023-02-22T14:29:08.365Z,16.15
2023-02-22T14:31:43.363Z,15.63
2023-02-22T14:34:11.409Z,15.80
2023-02-22T14:37:03.960Z,16.45
2023-02-22T14:39:33.714Z,15.93
2023-02-22T14:42:13.478Z,17.02
2023-02-22T14:45:01.292Z,15.02
2023-02-22T14:47:40.391Z,16.65
2023-02-22T14:50:16.900Z,17.83
2023-02-22T14:52:47.529Z,16.60
2023-02-22T14:55:25.935Z,16.05
2023-02-22T14:58:20.738Z,18.23
2023-02-22T15:00:58.920Z,17.42
2023-02-22T15:03:37.784Z,18.20
2023-02-22T15:06:23.373Z,18.65
2023-02-22T15:09:14.466Z,18.60
2023-02-22T15:11:41.715Z,18.27
2023-02-22T15:14:26.330Z,20.13
2023-02-22T15:16:56.579Z,18.88
2023-02-22T15:19:32.243Z,18.90
2023-02-22T15:22:01.627Z,19.90
2023-02-22T15:24:31.494Z,20.77
2023-02-22T15:27:07.401Z,24.60
2023-02-22T15:29:40.604Z,37.20
2023-02-22T15:32:31.956Z,21.77
2023-02-22T15:35:17.421Z,21.88
2023-02-22T15:37:46.670Z,23.05
2023-02-22T15:40:19.201Z,20.20
2023-02-22T15:42:49.026Z,22.42
2023-02-22T15:45:19.954Z,23.15
2023-02-22T15:47:49.278Z,21.33
2023-02-22T15:51:07.243Z,21.65
2023-02-22T15:53:54.139Z,20.85
2023-02-22T15:56:30.410Z,22.48
2023-02-22T15:59:07.293Z,20.98
2023-02-22T16:01:43.196Z,23.77
2023-02-22T16:04:22.746Z,23.60
2023-02-22T16:06:52.408Z,24.17
2023-02-22T16:09:26.039Z,24.77
2023-02-22T16:14:42.755Z,25.02
2023-02-22T16:17:31.217Z,26.80
2023-02-22T16:20:19.207Z,28.13
2023-02-22T16:22:50.274Z,28.48
2023-02-22T16:25:21.580Z,29.20
2023-02-22T16:27:49.686Z,29.52
2023-02-22T16:30:32.541Z,31.73
2023-02-22T16:33:01.061Z,35.87
2023-02-22T16:35:29.228Z,31.02
2023-02-22T16:38:05.845Z,31.63
2023-02-22T16:40:35.035Z,30.80
2023-02-22T16:43:18.646Z,31.35
2023-02-22T16:45:45.650Z,36.40
2023-02-22T16:48:26.628Z,32.75
2023-02-22T16:50:55.599Z,32.05
2023-02-22T16:53:25.920Z,38.13
2023-02-22T16:56:01.157Z,35.92
2023-02-22T16:58:32.312Z,37.20
2023-02-22T17:00:59.038Z,38.63
2023-02-22T17:03:26.772Z,39.42
2023-02-22T17:05:54.077Z,40.85
2023-02-22T17:08:20.795Z,42.42
2023-02-22T17:10:51.839Z,40.58
2023-02-22T17:13:26.747Z,46.22
2023-02-22T17:15:57.692Z,43.92
2023-02-22T17:18:28.537Z,42.03
2023-02-22T17:20:56.062Z,46.42
2023-02-22T17:23:24.235Z,42.58
2023-02-22T17:25:56.754Z,47.53
2023-02-22T17:28:31.536Z,40.88
2023-02-22T17:31:02.894Z,43.85
2023-02-22T17:33:35.459Z,41.58
2023-02-22T17:36:04.910Z,40.17
2023-02-22T17:38:32.330Z,39.83
2023-02-22T17:41:00.540Z,38.83
2023-02-22T17:43:28.459Z,37.70
2023-02-22T17:45:55.910Z,37.22
2023-02-22T17:48:24.226Z,37.33
2023-02-22T17:50:52.198Z,38.60
2023-02-22T17:53:22.720Z,39.95
2023-02-22T17:55:50.077Z,38.65
2023-02-22T17:58:17.325Z,38.22
2023-02-22T18:00:49.485Z,37.80
2023-02-22T18:03:26.122Z,37.47
2023-02-22T18:05:57.557Z,37.17
2023-02-22T18:08:29.211Z,36.67
2023-02-22T18:10:58.938Z,31.95
2023-02-22T18:13:27.392Z,36.85
2023-02-22T18:16:00.484Z,33.35
2023-02-22T18:18:28.284Z,35.03
2023-02-22T18:20:59.403Z,32.88
2023-02-22T18:23:28.926Z,32.45
2023-02-22T18:26:09.686Z,32.72
2023-02-22T18:28:37.566Z,34.88
2023-02-22T18:31:14.932Z,35.72
2023-02-22T18:33:46.619Z,34.08
2023-02-22T18:36:16.413Z,33.58
2023-02-22T18:38:44.819Z,34.28
2023-02-22T18:41:14.623Z,35.65
2023-02-22T18:43:41.844Z,34.15
2023-02-22T18:46:10.719Z,33.40
2023-02-22T18:48:38.880Z,35.47
2023-02-22T18:51:10.344Z,34.95
2023-02-22T18:53:38.960Z,31.45
2023-02-22T18:56:11.982Z,36.05
2023-02-22T18:58:39.080Z,33.90
2023-02-22T19:01:07.205Z,33.60
2023-02-22T19:03:38.429Z,33.97
2023-02-22T19:06:11.526Z,33.30
2023-02-22T19:08:40.375Z,35.97
2023-02-22T19:11:18.097Z,34.80
2023-02-22T19:13:49.801Z,37.92
2023-02-22T19:16:20.890Z,38.70
2023-02-22T19:18:49.729Z,37.20
2023-02-22T19:21:17.048Z,40.05
2023-02-22T19:23:48.059Z,40.00
2023-02-22T19:26:18.827Z,46.78
2023-02-22T19:28:46.369Z,37.80
2023-02-22T19:31:19.821Z,37.50
2023-02-22T19:33:52.929Z,39.05
2023-02-22T19:36:23.016Z,37.30
2023-02-22T19:38:49.919Z,39.45
2023-02-22T19:41:20.488Z,36.78
2023-02-22T19:43:49.669Z,36.17
2023-02-22T19:46:17.865Z,39.38
2023-02-22T19:48:45.710Z,41.22
2023-02-22T19:51:15.345Z,38.83
2023-02-22T19:53:43.346Z,36.30
2023-02-22T19:56:13.881Z,37.47
2023-02-22T19:58:42.719Z,37.75
2023-02-22T20:01:22.858Z,36.40
2023-02-22T20:03:54.497Z,34.15
2023-02-22T20:06:26.493Z,35.90
2023-02-22T20:08:54.664Z,36.92
2023-02-22T20:11:22.646Z,35.85
2023-02-22T20:13:50.285Z,36.28
2023-02-22T20:16:18.444Z,34.78
2023-02-22T20:18:47.300Z,34.83
2023-02-22T20:21:25.126Z,35.50
2023-02-22T20:23:57.315Z,34.95
2023-02-22T20:26:26.415Z,35.13
2023-02-22T20:28:53.242Z,37.63
2023-02-22T20:31:21.548Z,38.08
2023-02-22T20:33:56.855Z,36.80
2023-02-22T20:36:25.077Z,33.83
2023-02-22T20:38:54.642Z,35.25
2023-02-22T20:41:28.343Z,34.75
2023-02-22T20:46:23.848Z,34.58
2023-02-22T20:48:55.438Z,33.15
2023-02-22T20:51:23.136Z,34.95
2023-02-22T20:53:50.325Z,34.13
2023-02-22T20:56:21.768Z,34.90
2023-02-22T20:58:49.564Z,36.08
2023-02-22T21:01:19.524Z,34.75
2023-02-22T21:03:47.021Z,35.53
2023-02-22T21:06:15.698Z,33.53
2023-02-22T21:08:43.994Z,34.08
2023-02-22T21:11:13.027Z,33.83
2023-02-22T21:13:43.569Z,33.70
2023-02-22T21:16:26.507Z,34.25
2023-02-22T21:18:58.409Z,34.13
2023-02-22T21:21:27.036Z,33.20
2023-02-22T21:23:56.349Z,33.58
2023-02-22T21:26:27.436Z,34.17
2023-02-22T21:28:55.535Z,33.22
2023-02-22T21:31:24.820Z,34.47
2023-02-22T21:33:54.229Z,32.47
2023-02-22T21:36:25.130Z,35.42
2023-02-22T21:38:58.208Z,34.67
2023-02-22T21:41:28.038Z,34.63
2023-02-22T21:43:57.313Z,35.75
2023-02-22T21:46:24.992Z,35.78
2023-02-22T21:48:51.784Z,35.50
2023-02-22T21:51:31.974Z,35.05
2023-02-22T21:54:05.002Z,34.80
2023-02-22T21:56:36.942Z,34.95
2023-02-22T21:59:24.074Z,35.50
2023-02-22T22:01:57.995Z,34.78
2023-02-22T22:04:29.869Z,35.05
2023-02-22T22:06:59.112Z,35.40
2023-02-22T22:09:30.060Z,37.28
2023-02-22T22:12:05.430Z,37.08
2023-02-22T22:14:41.465Z,36.88
2023-02-22T22:17:09.910Z,38.35
2023-02-22T22:19:43.958Z,38.45
2023-02-22T22:22:10.696Z,36.50
2023-02-22T22:24:37.996Z,38.30
2023-02-22T22:27:06.494Z,39.08
2023-02-22T22:29:34.504Z,37.22
2023-02-22T22:32:02.679Z,39.58
2023-02-22T22:34:29.700Z,39.47
2023-02-22T22:37:02.747Z,39.90
2023-02-22T22:39:29.677Z,38.38
2023-02-22T22:41:56.954Z,38.22
2023-02-22T22:44:23.592Z,38.35
2023-02-22T22:46:54.766Z,37.50
2023-02-22T22:49:24.049Z,38.75
2023-02-22T22:51:51.343Z,36.70
2023-02-22T22:54:18.349Z,39.40
2023-02-22T22:56:45.296Z,37.90
2023-02-22T22:59:13.937Z,36.55
2023-02-22T23:01:44.612Z,37.30
2023-02-22T23:04:16.216Z,38.03
2023-02-22T23:06:52.123Z,39.42
2023-02-22T23:09:24.578Z,37.60
2023-02-22T23:12:08.960Z,37.45
2023-02-22T23:14:44.176Z,35.50
2023-02-22T23:17:30.789Z,35.78
2023-02-22T23:19:57.863Z,34.75
2023-02-22T23:22:24.473Z,34.95
2023-02-22T23:24:51.197Z,34.47
2023-02-22T23:27:19.068Z,36.28
2023-02-22T23:29:46.695Z,36.90
2023-02-22T23:32:14.202Z,37.17
2023-02-22T23:34:43.705Z,36.80
2023-02-22T23:37:10.751Z,38.88
2023-02-22T23:39:38.821Z,37.65
2023-02-22T23:42:08.757Z,38.92
2023-02-22T23:44:39.759Z,37.45
2023-02-22T23:47:06.440Z,39.72
2023-02-22T23:49:35.716Z,36.70
2023-02-22T23:52:04.489Z,36.25
2023-02-22T23:54:36.454Z,38.88
2023-02-22T23:57:04.655Z,37.65
2023-02-22T23:59:33.021Z,39.13
